createdAt,value
2023-02-20T00:00:09.384Z,5.05
2023-02-20T00:02:35.931Z,5.22
2023-02-20T00:05:03.064Z,4.93
2023-02-20T00:07:29.475Z,4.70
2023-02-20T00:09:55.898Z,5.13
2023-02-20T00:12:22.299Z,5.57
2023-02-20T00:14:48.776Z,5.70
2023-02-20T00:17:15.204Z,5.35
2023-02-20T00:19:41.608Z,5.15
2023-02-20T00:22:08.058Z,5.32
2023-02-20T00:24:34.732Z,5.25
2023-02-20T00:27:01.133Z,5.57
2023-02-20T00:29:27.577Z,5.97
2023-02-20T00:31:56.579Z,4.68
2023-02-20T00:34:27.964Z,5.45
2023-02-20T00:36:54.469Z,5.40
2023-02-20T00:39:21.129Z,5.13
2023-02-20T00:41:48.776Z,6.07
2023-02-20T00:44:15.770Z,5.78
2023-02-20T00:46:42.271Z,6.70
2023-02-20T00:49:08.710Z,6.05
2023-02-20T00:51:47.668Z,6.07
2023-02-20T00:54:14.633Z,6.38
2023-02-20T00:56:41.162Z,6.10
2023-02-20T00:59:07.785Z,7.25
2023-02-20T01:01:34.347Z,6.40
2023-02-20T01:04:00.827Z,6.65
2023-02-20T01:06:27.298Z,5.80
2023-02-20T01:08:53.755Z,5.95
2023-02-20T01:11:20.743Z,6.57
2023-02-20T01:13:47.241Z,6.53
2023-02-20T01:16:14.006Z,7.22
2023-02-20T01:18:42.782Z,7.47
2023-02-20T01:21:09.295Z,7.70
2023-02-20T01:23:35.797Z,7.25
2023-02-20T01:26:02.197Z,7.00
2023-02-20T01:28:28.660Z,7.32
2023-02-20T01:30:55.154Z,7.82
2023-02-20T01:33:21.652Z,7.88
2023-02-20T01:35:48.106Z,8.10
2023-02-20T01:38:14.491Z,8.63
2023-02-20T01:40:49.010Z,7.93
2023-02-20T01:43:16.673Z,7.35
2023-02-20T01:45:43.713Z,7.45
2023-02-20T01:48:26.113Z,7.53
2023-02-20T01:50:58.514Z,7.53
2023-02-20T01:53:28.481Z,7.55
2023-02-20T01:56:07.506Z,7.50
2023-02-20T01:58:39.806Z,9.15
2023-02-20T02:01:06.622Z,7.70
2023-02-20T02:03:37.349Z,7.35
2023-02-20T02:06:07.438Z,7.40
2023-02-20T02:08:37.726Z,7.90
2023-02-20T02:11:09.787Z,9.05
2023-02-20T02:13:38.811Z,9.73
2023-02-20T02:16:37.157Z,8.82
2023-02-20T02:19:30.984Z,8.52
2023-02-20T02:22:21.841Z,10.25
2023-02-20T02:25:33.774Z,10.00
2023-02-20T02:28:28.869Z,10.13
2023-02-20T02:31:01.372Z,9.43
2023-02-20T02:34:03.870Z,10.15
2023-02-20T02:36:50.076Z,10.70
2023-02-20T02:39:22.400Z,10.70
2023-02-20T02:42:02.989Z,11.20
2023-02-20T02:44:42.519Z,11.10
2023-02-20T02:47:18.231Z,12.90
2023-02-20T02:50:10.875Z,12.73
2023-02-20T02:52:49.470Z,12.13
2023-02-20T02:55:23.036Z,12.70
2023-02-20T02:57:50.381Z,11.43
2023-02-20T03:00:26.886Z,11.75
2023-02-20T03:03:09.348Z,11.73
2023-02-20T03:05:46.394Z,12.13
2023-02-20T03:08:32.861Z,11.73
2023-02-20T03:11:28.502Z,11.68
2023-02-20T03:14:20.673Z,12.82
2023-02-20T03:16:57.628Z,14.80
2023-02-20T03:19:35.663Z,13.38
2023-02-20T03:22:05.513Z,12.10
2023-02-20T03:24:54.053Z,12.15
2023-02-20T03:27:38.922Z,13.95
2023-02-20T03:30:15.520Z,13.20
2023-02-20T03:33:03.127Z,12.55
2023-02-20T03:35:53.338Z,12.27
2023-02-20T03:38:42.599Z,11.85
2023-02-20T03:41:32.756Z,12.95
2023-02-20T03:44:03.201Z,12.60
2023-02-20T03:46:33.605Z,12.02
2023-02-20T03:49:31.753Z,12.27
2023-02-20T03:51:58.864Z,12.73
2023-02-20T03:54:40.072Z,12.35
2023-02-20T03:57:12.105Z,10.75
2023-02-20T04:00:00.742Z,12.77
2023-02-20T04:02:42.439Z,11.70
2023-02-20T04:05:16.044Z,12.68
2023-02-20T04:07:49.988Z,12.60
2023-02-20T04:10:24.913Z,12.25
2023-02-20T04:12:53.446Z,11.75
2023-02-20T04:15:21.237Z,10.35
2023-02-20T04:17:56.559Z,13.10
2023-02-20T04:20:23.289Z,13.23
2023-02-20T04:23:05.745Z,11.35
2023-02-20T04:25:53.637Z,12.77
2023-02-20T04:28:21.148Z,13.45
2023-02-20T04:30:54.840Z,13.45
2023-02-20T04:33:23.585Z,12.55
2023-02-20T04:35:55.065Z,11.48
2023-02-20T04:38:21.550Z,12.73
2023-02-20T04:40:48.484Z,12.00
2023-02-20T04:43:14.941Z,13.05
2023-02-20T04:45:41.637Z,12.02
2023-02-20T04:48:08.196Z,13.35
2023-02-20T04:50:35.211Z,13.98
2023-02-20T04:53:03.375Z,14.38
2023-02-20T04:55:29.921Z,13.48
2023-02-20T04:57:59.825Z,15.02
2023-02-20T05:00:30.803Z,14.85
2023-02-20T05:02:58.174Z,13.13
2023-02-20T05:05:29.367Z,14.85
2023-02-20T05:07:58.450Z,13.73
2023-02-20T05:12:52.375Z,13.63
2023-02-20T05:15:19.838Z,13.32
2023-02-20T05:17:46.991Z,13.23
2023-02-20T05:20:14.892Z,14.30
2023-02-20T05:22:41.578Z,13.18
2023-02-20T05:25:08.796Z,14.65
2023-02-20T05:27:35.428Z,12.82
2023-02-20T05:30:02.180Z,12.10
2023-02-20T05:32:30.071Z,13.63
2023-02-20T05:34:57.017Z,13.13
2023-02-20T05:37:25.225Z,13.38
2023-02-20T05:39:52.012Z,11.88
2023-02-20T05:42:18.521Z,13.48
2023-02-20T05:44:45.168Z,11.85
2023-02-20T05:47:11.582Z,12.85
2023-02-20T05:49:38.120Z,11.80
2023-02-20T05:52:11.895Z,11.57
2023-02-20T05:54:39.659Z,13.40
2023-02-20T05:57:06.355Z,9.63
2023-02-20T05:59:32.901Z,10.85
2023-02-20T06:02:00.693Z,10.02
2023-02-20T06:04:27.788Z,9.73
2023-02-20T06:06:54.438Z,11.35
2023-02-20T06:09:21.057Z,10.48
2023-02-20T06:11:56.260Z,9.50
2023-02-20T06:14:25.540Z,9.43
2023-02-20T06:16:52.291Z,9.82
2023-02-20T06:19:24.352Z,8.73
2023-02-20T06:21:53.565Z,9.27
2023-02-20T06:24:21.160Z,8.88
2023-02-20T06:26:47.579Z,8.38
2023-02-20T06:29:16.377Z,10.20
2023-02-20T06:31:43.189Z,8.50
2023-02-20T06:34:10.909Z,8.20
2023-02-20T06:36:40.599Z,7.53
2023-02-20T06:39:10.489Z,8.13
2023-02-20T06:41:36.986Z,7.93
2023-02-20T06:44:03.591Z,9.00
2023-02-20T06:46:30.096Z,7.65
2023-02-20T06:48:58.400Z,8.95
2023-02-20T06:51:30.063Z,8.18
2023-02-20T06:53:56.969Z,9.50
2023-02-20T06:56:29.306Z,8.68
2023-02-20T06:58:56.707Z,8.68
2023-02-20T07:01:28.748Z,8.02
2023-02-20T07:03:56.178Z,8.68
2023-02-20T07:06:24.215Z,7.38
2023-02-20T07:08:51.159Z,7.78
2023-02-20T07:11:19.929Z,8.15
2023-02-20T07:13:46.404Z,7.30
2023-02-20T07:16:13.392Z,6.70
2023-02-20T07:18:40.137Z,7.07
2023-02-20T07:21:07.160Z,6.68
2023-02-20T07:23:33.718Z,8.38
2023-02-20T07:26:00.193Z,7.32
2023-02-20T07:28:26.685Z,7.13
2023-02-20T07:30:53.092Z,7.38
2023-02-20T07:33:19.757Z,6.00
2023-02-20T07:35:46.704Z,7.38
2023-02-20T07:38:14.634Z,7.18
2023-02-20T07:40:41.096Z,6.38
2023-02-20T07:43:07.731Z,5.75
2023-02-20T07:45:39.201Z,6.35
2023-02-20T07:48:06.015Z,7.38
2023-02-20T07:50:32.476Z,5.75
2023-02-20T07:52:58.916Z,6.22
2023-02-20T07:55:25.353Z,7.63
2023-02-20T07:57:54.273Z,6.78
2023-02-20T08:00:21.985Z,6.72
2023-02-20T08:02:48.632Z,7.50
2023-02-20T08:05:15.351Z,6.93
2023-02-20T08:07:46.884Z,6.30
2023-02-20T08:10:18.733Z,4.82
2023-02-20T08:12:46.066Z,5.70
2023-02-20T08:15:12.880Z,7.88
2023-02-20T08:17:46.587Z,7.03
2023-02-20T08:20:18.769Z,7.00
2023-02-20T08:22:46.797Z,7.15
2023-02-20T08:25:14.389Z,6.28
2023-02-20T08:27:46.339Z,6.53
2023-02-20T08:30:23.770Z,6.68
2023-02-20T08:32:54.803Z,6.97
2023-02-20T08:35:24.872Z,6.28
2023-02-20T08:37:51.829Z,7.70
2023-02-20T08:40:18.682Z,6.10
2023-02-20T08:42:45.149Z,6.40
2023-02-20T08:45:11.737Z,6.43
2023-02-20T08:47:38.202Z,6.57
2023-02-20T08:50:04.935Z,6.95
2023-02-20T08:52:31.426Z,6.90
2023-02-20T08:54:58.177Z,7.05
2023-02-20T08:57:24.630Z,7.88
2023-02-20T08:59:51.075Z,6.78
2023-02-20T09:02:19.616Z,7.32
2023-02-20T09:04:46.491Z,7.28
2023-02-20T09:07:14.313Z,8.07
2023-02-20T09:09:41.079Z,6.88
2023-02-20T09:12:08.509Z,7.78
2023-02-20T09:14:35.802Z,7.60
2023-02-20T09:17:02.316Z,7.75
2023-02-20T09:19:28.905Z,7.65
2023-02-20T09:21:55.417Z,8.52
2023-02-20T09:24:21.969Z,8.13
2023-02-20T09:26:48.549Z,8.30
2023-02-20T09:29:15.402Z,8.45
2023-02-20T09:31:42.013Z,8.93
2023-02-20T09:34:09.403Z,8.60
2023-02-20T09:36:35.817Z,9.23
2023-02-20T09:39:02.205Z,8.05
2023-02-20T09:41:40.901Z,8.65
2023-02-20T09:44:50.530Z,9.63
2023-02-20T09:47:38.424Z,8.80
2023-02-20T09:50:11.763Z,8.05
2023-02-20T09:52:42.945Z,8.32
2023-02-20T09:55:19.687Z,9.38
2023-02-20T09:57:49.893Z,8.27
2023-02-20T10:00:32.408Z,8.57
2023-02-20T10:03:16.124Z,10.07
2023-02-20T10:05:45.603Z,7.60
2023-02-20T10:08:17.169Z,8.25
2023-02-20T10:10:43.763Z,8.95
2023-02-20T10:13:29.085Z,7.88
2023-02-20T10:16:32.395Z,7.63
2023-02-20T10:19:01.656Z,7.68
2023-02-20T10:21:33.890Z,7.32
2023-02-20T10:24:18.198Z,8.02
2023-02-20T10:26:50.428Z,7.85
2023-02-20T10:29:25.266Z,8.13
2023-02-20T10:31:58.137Z,7.00
2023-02-20T10:34:32.542Z,7.28
2023-02-20T10:37:08.341Z,7.97
2023-02-20T10:39:36.288Z,6.55
2023-02-20T10:42:12.681Z,6.97
2023-02-20T10:44:53.468Z,6.75
2023-02-20T10:50:22.774Z,5.93
2023-02-20T10:53:04.065Z,5.35
2023-02-20T10:55:39.243Z,5.75
2023-02-20T10:58:41.106Z,6.53
2023-02-20T11:01:11.382Z,6.70
2023-02-20T11:04:09.497Z,7.05
2023-02-20T11:06:59.554Z,7.95
2023-02-20T11:09:27.487Z,7.50
2023-02-20T11:11:55.334Z,7.20
2023-02-20T11:14:41.705Z,7.95
2023-02-20T11:17:20.591Z,7.97
2023-02-20T11:19:53.614Z,7.25
2023-02-20T11:22:49.210Z,8.95
2023-02-20T11:25:27.390Z,9.18
2023-02-20T11:27:57.173Z,8.40
2023-02-20T11:30:26.582Z,8.77
2023-02-20T11:33:18.491Z,9.20
2023-02-20T11:35:47.744Z,9.77
2023-02-20T11:38:26.463Z,8.88
2023-02-20T11:40:52.975Z,9.65
2023-02-20T11:43:27.732Z,9.05
2023-02-20T11:46:15.885Z,8.75
2023-02-20T11:49:11.514Z,9.85
2023-02-20T11:51:42.175Z,8.40
2023-02-20T11:54:29.490Z,9.15
2023-02-20T11:57:23.531Z,8.80
2023-02-20T11:59:51.575Z,9.65
2023-02-20T12:02:18.344Z,9.93
2023-02-20T12:05:06.700Z,10.82
2023-02-20T12:07:37.194Z,10.32
2023-02-20T12:10:19.960Z,10.05
2023-02-20T12:12:46.487Z,9.63
2023-02-20T12:15:18.130Z,10.70
2023-02-20T12:18:03.089Z,10.45
2023-02-20T12:20:30.861Z,11.10
2023-02-20T12:23:26.526Z,10.30
2023-02-20T12:26:34.357Z,10.77
2023-02-20T12:29:03.782Z,10.38
2023-02-20T12:31:42.779Z,12.52
2023-02-20T12:34:16.897Z,11.82
2023-02-20T12:36:54.143Z,12.18
2023-02-20T12:39:33.932Z,12.63
2023-02-20T12:42:12.831Z,12.10
2023-02-20T12:44:52.542Z,12.02
2023-02-20T12:47:30.369Z,11.07
2023-02-20T12:50:18.014Z,12.43
2023-02-20T12:52:56.501Z,9.85
2023-02-20T12:56:04.283Z,11.63
2023-02-20T12:58:48.783Z,8.98
2023-02-20T13:01:27.715Z,10.65
2023-02-20T13:04:04.444Z,9.63
2023-02-20T13:07:03.103Z,9.02
2023-02-20T13:09:36.764Z,8.65
2023-02-20T13:12:11.236Z,8.98
2023-02-20T13:14:53.502Z,9.77
2023-02-20T13:17:36.975Z,9.23
2023-02-20T13:20:26.310Z,8.80
2023-02-20T13:23:25.554Z,9.00
2023-02-20T13:25:53.668Z,8.90
2023-02-20T13:28:42.776Z,10.55
2023-02-20T13:31:29.532Z,9.20
2023-02-20T13:34:04.884Z,9.07
2023-02-20T13:36:44.462Z,9.25
2023-02-20T13:39:20.098Z,9.98
2023-02-20T13:41:55.617Z,10.68
2023-02-20T13:44:28.114Z,12.43
2023-02-20T13:46:59.322Z,10.15
2023-02-20T13:49:50.368Z,10.68
2023-02-20T13:52:38.433Z,10.13
2023-02-20T13:55:11.032Z,10.30
2023-02-20T13:57:49.816Z,10.20
2023-02-20T14:00:40.931Z,11.25
2023-02-20T14:03:19.012Z,10.32
2023-02-20T14:05:45.860Z,11.18
2023-02-20T14:08:19.197Z,12.38
2023-02-20T14:10:47.969Z,13.10
2023-02-20T14:13:23.026Z,11.80
2023-02-20T14:15:56.934Z,12.55
2023-02-20T14:18:30.869Z,12.00
2023-02-20T14:21:17.114Z,13.65
2023-02-20T14:23:45.803Z,14.13
2023-02-20T14:26:21.492Z,12.98
2023-02-20T14:28:51.055Z,12.13
2023-02-20T14:31:26.615Z,10.70
2023-02-20T14:34:06.929Z,12.35
2023-02-20T14:36:58.899Z,11.40
2023-02-20T14:39:40.333Z,12.60
2023-02-20T14:42:15.150Z,12.52
2023-02-20T14:47:16.513Z,10.82
2023-02-20T14:49:44.231Z,11.77
2023-02-20T14:52:10.706Z,11.95
2023-02-20T14:54:39.455Z,11.88
2023-02-20T14:57:06.967Z,12.10
2023-02-20T14:59:36.005Z,12.18
2023-02-20T15:02:24.203Z,12.05
2023-02-20T15:05:05.242Z,11.90
2023-02-20T15:07:32.048Z,11.63
2023-02-20T15:10:02.769Z,11.52
2023-02-20T15:12:34.407Z,12.48
2023-02-20T15:15:11.594Z,14.20
2023-02-20T15:17:40.645Z,13.00
2023-02-20T15:20:37.745Z,13.10
2023-02-20T15:23:16.335Z,13.35
2023-02-20T15:25:44.340Z,12.57
2023-02-20T15:28:25.954Z,13.25
2023-02-20T15:31:02.680Z,13.93
2023-02-20T15:33:31.348Z,14.20
2023-02-20T15:35:58.956Z,14.52
2023-02-20T15:38:32.821Z,13.95
2023-02-20T15:41:02.128Z,13.95
2023-02-20T15:43:37.863Z,13.30
2023-02-20T15:46:14.527Z,14.18
2023-02-20T15:48:42.126Z,13.23
2023-02-20T15:51:10.349Z,13.73
2023-02-20T15:53:38.397Z,14.07
2023-02-20T15:56:05.750Z,13.20
2023-02-20T15:58:36.290Z,14.88
2023-02-20T16:01:03.735Z,12.43
2023-02-20T16:03:33.940Z,12.23
2023-02-20T16:08:32.065Z,11.30
2023-02-20T16:10:58.587Z,13.20
2023-02-20T16:13:35.018Z,12.13
2023-02-20T16:16:18.392Z,12.63
2023-02-20T16:18:51.614Z,13.65
2023-02-20T16:21:20.533Z,13.00
2023-02-20T16:26:21.666Z,14.60
2023-02-20T16:28:54.908Z,11.85
2023-02-20T16:31:21.520Z,13.20
2023-02-20T16:33:49.382Z,12.43
2023-02-20T16:36:24.267Z,14.85
2023-02-20T16:38:51.506Z,14.68
2023-02-20T16:41:17.966Z,13.45
2023-02-20T16:43:44.441Z,13.80
2023-02-20T16:46:10.994Z,15.05
2023-02-20T16:48:37.495Z,12.98
2023-02-20T16:51:06.263Z,12.68
2023-02-20T16:53:32.860Z,13.43
2023-02-20T16:55:59.352Z,13.40
2023-02-20T16:58:25.920Z,14.32
2023-02-20T17:00:57.689Z,13.63
2023-02-20T17:03:24.711Z,14.05
2023-02-20T17:05:58.192Z,13.85
2023-02-20T17:08:28.287Z,12.40
2023-02-20T17:10:54.817Z,12.32
2023-02-20T17:13:21.864Z,14.60
2023-02-20T17:15:48.545Z,14.10
2023-02-20T17:18:15.717Z,13.15
2023-02-20T17:20:42.204Z,13.77
2023-02-20T17:23:08.632Z,12.63
2023-02-20T17:25:35.120Z,15.55
2023-02-20T17:28:02.335Z,12.95
2023-02-20T17:30:28.879Z,13.38
2023-02-20T17:32:55.425Z,13.30
2023-02-20T17:35:21.928Z,13.27
2023-02-20T17:37:49.463Z,13.40
2023-02-20T17:40:16.651Z,10.90
2023-02-20T17:42:43.257Z,11.00
2023-02-20T17:45:10.084Z,10.43
2023-02-20T17:47:37.342Z,9.95
2023-02-20T17:50:04.585Z,10.25
2023-02-20T17:52:31.167Z,11.10
2023-02-20T17:54:57.807Z,12.25
2023-02-20T17:57:24.610Z,13.15
2023-02-20T17:59:51.167Z,11.38
2023-02-20T18:02:18.920Z,12.18
2023-02-20T18:04:45.780Z,12.23
2023-02-20T18:07:14.277Z,12.25
2023-02-20T18:09:40.961Z,12.35
2023-02-20T18:12:07.768Z,12.00
2023-02-20T18:14:34.253Z,12.55
2023-02-20T18:17:00.677Z,12.10
2023-02-20T18:19:27.364Z,10.98
2023-02-20T18:21:53.909Z,12.13
2023-02-20T18:24:25.895Z,12.90
2023-02-20T18:26:53.815Z,13.05
2023-02-20T18:29:21.267Z,11.82
2023-02-20T18:31:49.094Z,12.52
2023-02-20T18:34:15.717Z,11.95
2023-02-20T18:36:42.147Z,13.43
2023-02-20T18:39:09.859Z,12.60
2023-02-20T18:41:37.594Z,11.93
2023-02-20T18:44:04.983Z,13.77
2023-02-20T18:46:36.120Z,13.07
2023-02-20T18:49:03.621Z,13.77
2023-02-20T18:51:33.486Z,15.25
2023-02-20T18:54:00.421Z,12.88
2023-02-20T18:56:27.406Z,13.00
2023-02-20T18:58:54.492Z,14.18
2023-02-20T19:01:21.518Z,13.52
2023-02-20T19:03:53.175Z,13.38
2023-02-20T19:06:34.420Z,12.88
2023-02-20T19:09:01.583Z,12.70
2023-02-20T19:11:28.681Z,13.90
2023-02-20T19:13:55.160Z,13.98
2023-02-20T19:16:22.755Z,11.63
2023-02-20T19:18:50.850Z,11.70
2023-02-20T19:21:18.775Z,12.82
2023-02-20T19:23:46.274Z,13.88
2023-02-20T19:26:13.702Z,12.13
2023-02-20T19:28:42.098Z,12.27
2023-02-20T19:31:10.375Z,12.15
2023-02-20T19:33:37.163Z,12.60
2023-02-20T19:36:04.754Z,9.77
2023-02-20T19:38:31.292Z,11.10
2023-02-20T19:40:57.744Z,12.10
2023-02-20T19:43:26.378Z,11.68
2023-02-20T19:45:52.842Z,10.82
2023-02-20T19:48:19.322Z,10.75
2023-02-20T19:50:45.776Z,9.77
2023-02-20T19:53:12.458Z,11.10
2023-02-20T19:55:38.917Z,9.35
2023-02-20T19:58:05.513Z,10.63
2023-02-20T20:00:32.151Z,10.70
2023-02-20T20:02:58.993Z,12.32
2023-02-20T20:05:26.153Z,13.13
2023-02-20T20:07:52.579Z,11.30
2023-02-20T20:10:23.119Z,11.32
2023-02-20T20:12:49.846Z,11.18
2023-02-20T20:15:19.365Z,11.05
2023-02-20T20:17:46.848Z,12.52
2023-02-20T20:20:15.470Z,11.75
2023-02-20T20:22:42.303Z,12.95
2023-02-20T20:25:10.750Z,12.85
2023-02-20T20:27:37.628Z,13.70
2023-02-20T20:30:09.197Z,15.68
2023-02-20T20:32:35.828Z,14.02
2023-02-20T20:35:02.669Z,12.85
2023-02-20T20:37:29.191Z,13.43
2023-02-20T20:39:59.273Z,13.35
2023-02-20T20:42:28.047Z,15.50
2023-02-20T20:44:57.058Z,15.80
2023-02-20T20:49:51.116Z,14.80
2023-02-20T20:52:18.786Z,15.15
2023-02-20T20:54:53.428Z,15.07
2023-02-20T20:57:22.172Z,15.27
2023-02-20T20:59:49.378Z,15.68
2023-02-20T21:02:17.628Z,14.98
2023-02-20T21:04:45.812Z,15.13
2023-02-20T21:07:12.644Z,14.77
2023-02-20T21:09:39.178Z,17.15
2023-02-20T21:12:05.925Z,17.35
2023-02-20T21:14:35.303Z,18.88
2023-02-20T21:17:04.554Z,16.50
2023-02-20T21:19:31.904Z,17.60
2023-02-20T21:21:58.518Z,16.70
2023-02-20T21:24:24.940Z,16.40
2023-02-20T21:26:51.536Z,16.25
2023-02-20T21:29:18.570Z,15.43
2023-02-20T21:31:45.753Z,15.00
2023-02-20T21:34:12.909Z,15.73
2023-02-20T21:36:39.497Z,15.27
2023-02-20T21:39:05.958Z,16.70
2023-02-20T21:41:51.004Z,17.60
2023-02-20T21:44:29.082Z,14.70
2023-02-20T21:47:01.110Z,15.18
2023-02-20T21:49:29.222Z,15.75
2023-02-20T21:51:56.460Z,17.65
2023-02-20T21:54:27.050Z,15.40
2023-02-20T21:56:53.996Z,15.80
2023-02-20T21:59:20.943Z,15.48
2023-02-20T22:01:47.769Z,16.13
2023-02-20T22:04:14.632Z,15.73
2023-02-20T22:06:41.972Z,15.70
2023-02-20T22:09:27.513Z,16.80
2023-02-20T22:12:12.442Z,14.77
2023-02-20T22:14:57.229Z,15.95
2023-02-20T22:17:42.190Z,14.13
2023-02-20T22:20:30.530Z,15.40
2023-02-20T22:23:16.085Z,14.60
2023-02-20T22:26:01.443Z,14.95
2023-02-20T22:28:46.453Z,14.82
2023-02-20T22:31:31.277Z,15.02
2023-02-20T22:34:16.360Z,11.48
2023-02-20T22:37:01.328Z,11.98
2023-02-20T22:39:46.681Z,11.93
2023-02-20T22:42:35.249Z,11.73
2023-02-20T22:45:21.352Z,11.43
2023-02-20T22:48:06.264Z,11.35
2023-02-20T22:50:51.069Z,11.00
2023-02-20T22:53:35.944Z,11.32
2023-02-20T22:56:20.866Z,10.68
2023-02-20T22:59:06.038Z,11.32
2023-02-20T23:01:51.011Z,11.68
2023-02-20T23:04:36.196Z,11.07
2023-02-20T23:07:21.563Z,11.35
2023-02-20T23:10:06.534Z,10.43
2023-02-20T23:12:51.331Z,12.82
2023-02-20T23:15:36.062Z,11.02
2023-02-20T23:18:21.024Z,11.40
2023-02-20T23:21:05.860Z,11.23
2023-02-20T23:23:51.031Z,11.45
2023-02-20T23:26:35.845Z,11.05
2023-02-20T23:29:20.629Z,10.73
2023-02-20T23:32:05.594Z,11.80
2023-02-20T23:34:50.771Z,12.45
2023-02-20T23:37:36.114Z,12.68
2023-02-20T23:40:27.292Z,12.65
2023-02-20T23:43:21.404Z,12.48
2023-02-20T23:46:06.503Z,13.65
2023-02-20T23:48:51.815Z,11.27
2023-02-20T23:51:36.960Z,12.93
2023-02-20T23:54:22.250Z,12.02
2023-02-20T23:57:07.302Z,12.63
2023-02-20T23:59:52.425Z,11.50
